Time;durP1;ratioP1;P1;durP2;ratioP2;P2;SDS_P1;SDS_P2;PMS_P1;PMS_P2;Temp;Humidity;BMP_temperature;BMP_pressure;BME280_temperature;BME280_humidity;BME280_pressure;Samples;Min_cycle;Max_cycle;Signal;HPM_P1;HPM_P2
2020/12/06 00:01:31;;;;;;;5.90;3.20;;;2.20;99.90;;;;;;4996062;28;20513;-69
2020/12/06 00:03:58;;;;;;;5.50;3.13;;;2.20;99.90;;;;;;5003952;28;20050;-69
2020/12/06 00:06:24;;;;;;;5.43;3.30;;;2.20;99.90;;;;;;4994186;28;20053;-69
2020/12/06 00:08:51;;;;;;;5.50;3.40;;;2.20;99.90;;;;;;4997456;28;20046;-69
2020/12/06 00:11:18;;;;;;;6.38;3.50;;;2.20;99.90;;;;;;4993109;28;20791;-69
2020/12/06 00:13:45;;;;;;;6.40;3.28;;;2.20;99.90;;;;;;4994783;28;20053;-69
2020/12/06 00:16:16;;;;;;;5.82;3.58;;;2.20;99.90;;;;;;4991821;28;20066;-69
2020/12/06 00:18:43;;;;;;;5.40;3.38;;;2.20;99.90;;;;;;4986711;28;20137;-69
2020/12/06 00:21:20;;;;;;;5.47;3.28;;;2.20;99.90;;;;;;4987298;28;20133;-70
2020/12/06 00:23:47;;;;;;;4.68;2.95;;;2.30;99.90;;;;;;4994498;28;20042;-69
2020/12/06 00:26:33;;;;;;;4.15;2.78;;;2.30;99.90;;;;;;4996826;28;20054;-69
2020/12/06 00:29:00;;;;;;;4.68;2.70;;;2.30;99.90;;;;;;4992624;28;20046;-69
2020/12/06 00:31:26;;;;;;;4.53;2.63;;;2.20;99.90;;;;;;4997449;28;20046;-69
2020/12/06 00:33:53;;;;;;;3.85;2.53;;;2.20;99.90;;;;;;4992748;28;20046;-69
2020/12/06 00:36:19;;;;;;;6.22;3.60;;;2.10;99.90;;;;;;4994954;28;20157;-69
2020/12/06 00:38:47;;;;;;;4.50;2.92;;;2.00;99.90;;;;;;4993797;28;20058;-69
2020/12/06 00:41:15;;;;;;;4.47;3.03;;;1.90;99.90;;;;;;4991938;28;20553;-69
2020/12/06 00:43:42;;;;;;;4.90;2.75;;;1.80;99.90;;;;;;4997218;28;20046;-69
2020/12/06 00:46:09;;;;;;;4.15;2.67;;;1.70;99.90;;;;;;4997972;28;20092;-69
2020/12/06 00:48:36;;;;;;;4.28;2.70;;;1.60;99.90;;;;;;5004097;28;20049;-69
2020/12/06 00:51:02;;;;;;;4.15;2.70;;;1.50;99.90;;;;;;4996006;28;20072;-69
2020/12/06 00:53:29;;;;;;;5.40;2.65;;;1.40;99.90;;;;;;5000165;28;20058;-69
2020/12/06 00:55:55;;;;;;;5.30;2.60;;;1.40;99.90;;;;;;4996124;28;20046;-69
2020/12/06 00:58:21;;;;;;;4.57;2.65;;;1.30;99.90;;;;;;4994238;28;20058;-69
2020/12/06 01:00:48;;;;;;;5.07;3.03;;;1.30;99.90;;;;;;4993814;28;20425;-69
2020/12/06 01:03:15;;;;;;;6.43;2.90;;;1.20;99.90;;;;;;4994508;28;20081;-69
2020/12/06 01:05:41;;;;;;;4.40;3.03;;;1.20;99.90;;;;;;4992282;28;20070;-69
2020/12/06 01:08:08;;;;;;;4.50;2.90;;;1.20;99.90;;;;;;4991612;28;20141;-69
2020/12/06 01:10:34;;;;;;;5.03;3.00;;;1.20;99.90;;;;;;4991755;28;20397;-69
2020/12/06 01:13:00;;;;;;;4.63;2.70;;;1.20;99.90;;;;;;4998859;28;20049;-69
2020/12/06 01:15:27;;;;;;;5.20;3.22;;;1.10;99.90;;;;;;4994088;28;21129;-69
2020/12/06 01:17:53;;;;;;;4.97;3.00;;;1.10;99.90;;;;;;4995142;28;20087;-69
2020/12/06 01:20:20;;;;;;;4.68;2.85;;;1.00;99.90;;;;;;4985774;28;20604;-69
2020/12/06 01:22:46;;;;;;;4.50;3.00;;;1.00;99.90;;;;;;4989160;28;20046;-69
2020/12/06 01:25:13;;;;;;;4.47;2.80;;;1.00;99.90;;;;;;4992315;28;20091;-69
2020/12/06 01:27:40;;;;;;;4.75;2.85;;;0.90;99.90;;;;;;4993837;28;20046;-69
2020/12/06 01:30:07;;;;;;;5.93;3.40;;;0.90;99.90;;;;;;4998527;28;20046;-69
2020/12/06 01:32:34;;;;;;;5.07;3.20;;;0.90;99.90;;;;;;4993035;28;20057;-68
2020/12/06 01:35:02;;;;;;;5.47;3.00;;;0.80;99.90;;;;;;4998487;28;20152;-69
2020/12/06 01:37:28;;;;;;;6.07;3.13;;;0.80;99.90;;;;;;4994031;28;20133;-69
2020/12/06 01:39:55;;;;;;;4.97;3.05;;;0.80;99.90;;;;;;4996158;28;20050;-69
2020/12/06 01:42:21;;;;;;;4.68;3.00;;;0.80;99.90;;;;;;4991227;28;20046;-69
2020/12/06 01:45:06;;;;;;;5.03;2.90;;;0.80;99.90;;;;;;4985554;28;20046;-69
2020/12/06 01:47:32;;;;;;;3.85;2.75;;;0.80;99.90;;;;;;4987635;28;20508;-69
2020/12/06 01:49:59;;;;;;;4.57;2.85;;;0.70;99.90;;;;;;4993965;28;20049;-69
2020/12/06 01:52:29;;;;;;;5.43;3.10;;;0.70;99.90;;;;;;4991967;28;20054;-69
2020/12/06 01:54:56;;;;;;;4.20;2.90;;;0.70;99.90;;;;;;4991947;28;20086;-69
2020/12/06 01:57:23;;;;;;;4.80;3.05;;;0.70;99.90;;;;;;4990134;28;20115;-69
2020/12/06 01:59:49;;;;;;;5.22;3.20;;;0.70;99.90;;;;;;4992682;28;20137;-69
2020/12/06 02:02:16;;;;;;;3.97;2.88;;;0.80;99.90;;;;;;4991990;28;20409;-69
2020/12/06 02:04:45;;;;;;;6.22;3.20;;;0.80;99.90;;;;;;4993786;28;20046;-69
2020/12/06 02:07:11;;;;;;;5.55;3.00;;;0.80;99.90;;;;;;4994671;28;20349;-69
2020/12/06 02:09:37;;;;;;;4.25;2.90;;;0.80;99.90;;;;;;4985765;28;20186;-69
2020/12/06 02:12:10;;;;;;;5.50;3.33;;;0.80;99.90;;;;;;4991819;28;20046;-69
2020/12/06 02:14:36;;;;;;;4.47;3.13;;;0.80;99.90;;;;;;4990397;28;20046;-69
2020/12/06 02:17:03;;;;;;;4.78;3.00;;;0.80;99.90;;;;;;4989973;28;20068;-68
2020/12/06 02:19:29;;;;;;;5.82;3.20;;;0.80;99.90;;;;;;4988886;28;20072;-69
2020/12/06 02:21:56;;;;;;;5.25;3.13;;;0.90;99.90;;;;;;4995834;28;20046;-69
2020/12/06 02:24:22;;;;;;;5.82;3.20;;;0.90;99.90;;;;;;4992331;28;20470;-69
2020/12/06 02:26:51;;;;;;;5.18;3.00;;;0.90;99.90;;;;;;4993772;28;20503;-69
2020/12/06 02:29:18;;;;;;;4.30;3.10;;;0.90;99.90;;;;;;4994748;28;20133;-69
2020/12/06 02:31:44;;;;;;;6.22;3.10;;;1.00;99.90;;;;;;4995100;28;20062;-69
2020/12/06 02:34:11;;;;;;;4.28;2.95;;;1.00;99.90;;;;;;4994596;28;20046;-69
2020/12/06 02:36:38;;;;;;;6.50;3.55;;;0.90;99.90;;;;;;4987049;28;20101;-69
2020/12/06 02:39:07;;;;;;;5.03;3.15;;;0.90;99.90;;;;;;4984249;28;20403;-69
2020/12/06 02:41:44;;;;;;;4.65;2.90;;;0.90;99.90;;;;;;4995006;28;20141;-69
2020/12/06 02:44:12;;;;;;;5.22;3.20;;;0.90;99.90;;;;;;4987645;28;20632;-69
2020/12/06 02:46:39;;;;;;;4.35;2.78;;;0.80;99.90;;;;;;4990926;28;20050;-69
2020/12/06 02:49:06;;;;;;;4.93;3.05;;;0.80;99.90;;;;;;4994851;28;20057;-69
2020/12/06 02:51:34;;;;;;;4.65;3.13;;;0.80;99.90;;;;;;4986359;28;20050;-69
2020/12/06 02:54:00;;;;;;;5.00;3.13;;;0.80;99.90;;;;;;4994745;28;20436;-69
2020/12/06 02:56:26;;;;;;;4.93;3.08;;;0.80;99.90;;;;;;4993459;28;20466;-69
2020/12/06 02:58:53;;;;;;;5.05;3.33;;;0.80;99.90;;;;;;4993784;28;20149;-69
2020/12/06 03:01:19;;;;;;;6.07;3.67;;;0.80;99.90;;;;;;4994903;28;20084;-69
2020/12/06 03:03:45;;;;;;;6.72;3.50;;;0.70;99.90;;;;;;4994687;28;20509;-69
2020/12/06 03:06:12;;;;;;;6.32;3.40;;;0.70;99.90;;;;;;4992791;28;20047;-69
2020/12/06 03:08:39;;;;;;;5.05;2.90;;;0.70;99.90;;;;;;4993746;28;20078;-69
2020/12/06 03:11:08;;;;;;;5.45;3.63;;;0.70;99.90;;;;;;4994736;28;20474;-69
2020/12/06 03:13:35;;;;;;;;;;;0.70;99.90;;;;;;4995259;28;20428;-69
2020/12/06 03:16:05;;;;;;;6.43;3.00;;;0.70;99.90;;;;;;4989806;28;20332;-69
2020/12/06 03:18:31;;;;;;;4.90;3.05;;;0.70;99.90;;;;;;4994915;28;20400;-69
2020/12/06 03:20:58;;;;;;;5.75;3.13;;;0.70;99.90;;;;;;4993836;28;20181;-69
2020/12/06 03:23:24;;;;;;;6.18;3.55;;;0.80;99.90;;;;;;4994912;28;20046;-69
2020/12/06 03:25:51;;;;;;;7.68;3.50;;;0.80;99.90;;;;;;4992967;28;20050;-69
2020/12/06 03:28:17;;;;;;;5.25;3.42;;;0.80;99.90;;;;;;4993364;28;20054;-69
2020/12/06 03:30:44;;;;;;;5.13;3.45;;;0.80;99.90;;;;;;4993991;28;20141;-69
2020/12/06 03:33:10;;;;;;;6.10;3.70;;;0.70;99.90;;;;;;4993991;28;20050;-69
2020/12/06 03:35:36;;;;;;;5.07;3.35;;;0.70;99.90;;;;;;4992517;28;20093;-69
2020/12/06 03:38:02;;;;;;;5.40;3.20;;;0.70;99.90;;;;;;4993469;28;20500;-69
2020/12/06 03:40:29;;;;;;;5.65;3.17;;;0.70;99.90;;;;;;4993804;28;20054;-69
2020/12/06 03:42:55;;;;;;;6.88;3.30;;;0.70;99.90;;;;;;4994210;28;20478;-69
2020/12/06 03:45:21;;;;;;;6.78;3.70;;;0.80;99.90;;;;;;4993026;28;20129;-69
2020/12/06 03:47:47;;;;;;;5.03;3.00;;;0.80;99.90;;;;;;4993049;28;20076;-69
2020/12/06 03:50:14;;;;;;;5.05;3.50;;;0.80;99.90;;;;;;4993826;28;20465;-69
2020/12/06 03:52:40;;;;;;;5.72;3.42;;;0.70;99.90;;;;;;4994286;28;20378;-69
2020/12/06 03:55:07;;;;;;;4.88;3.15;;;0.70;99.90;;;;;;4993300;28;20145;-69
2020/12/06 03:57:33;;;;;;;6.53;3.60;;;0.80;99.90;;;;;;4991579;28;20046;-69
2020/12/06 04:00:00;;;;;;;5.10;3.22;;;0.80;99.90;;;;;;4971853;28;20475;-69
2020/12/06 04:02:26;;;;;;;6.18;3.30;;;0.70;99.90;;;;;;4990977;28;20050;-69
2020/12/06 04:04:52;;;;;;;5.85;3.42;;;0.70;99.90;;;;;;4984498;28;20068;-69
2020/12/06 04:07:18;;;;;;;5.88;3.35;;;0.70;99.90;;;;;;4993530;28;20050;-69
2020/12/06 04:09:45;;;;;;;6.85;3.78;;;0.70;99.90;;;;;;4993448;28;20039;-69
2020/12/06 04:12:11;;;;;;;7.32;3.55;;;0.70;99.90;;;;;;4998038;28;20442;-69
2020/12/06 04:14:48;;;;;;;5.45;3.55;;;0.70;99.90;;;;;;4992615;28;20405;-69
2020/12/06 04:17:14;;;;;;;5.80;3.72;;;0.70;99.90;;;;;;4993193;28;20054;-69
2020/12/06 04:19:40;;;;;;;6.15;3.33;;;0.70;99.90;;;;;;4993262;28;20141;-69
2020/12/06 04:22:06;;;;;;;5.65;3.20;;;0.70;99.90;;;;;;4996080;28;20042;-69
2020/12/06 04:24:33;;;;;;;6.53;3.35;;;0.60;99.90;;;;;;5001478;28;20165;-69
2020/12/06 04:27:00;;;;;;;4.65;3.17;;;0.60;99.90;;;;;;4995098;28;20038;-69
2020/12/06 04:29:27;;;;;;;6.85;3.78;;;0.70;99.90;;;;;;4974991;28;20046;-69
2020/12/06 04:31:55;;;;;;;6.20;3.72;;;0.70;99.90;;;;;;4993293;28;20122;-69
2020/12/06 04:34:21;;;;;;;6.97;3.58;;;0.80;99.90;;;;;;4990252;28;20046;-69
2020/12/06 04:36:48;;;;;;;7.95;4.22;;;0.90;99.90;;;;;;4992758;28;20051;-70
2020/12/06 04:39:14;;;;;;;7.72;4.20;;;0.90;99.90;;;;;;4998566;28;20058;-70
2020/12/06 04:41:42;;;;;;;8.15;3.97;;;1.00;99.90;;;;;;4993523;28;20077;-70
2020/12/06 04:44:09;;;;;;;7.40;4.17;;;1.00;99.90;;;;;;4993062;28;20056;-69
2020/12/06 04:46:37;;;;;;;6.90;4.03;;;1.00;99.90;;;;;;4991588;28;20046;-70
2020/12/06 04:49:07;;;;;;;8.35;4.30;;;1.00;99.90;;;;;;4993282;28;20053;-70
2020/12/06 04:51:42;;;;;;;6.18;3.95;;;1.00;99.90;;;;;;4995319;28;20058;-69
2020/12/06 04:54:09;;;;;;;5.22;3.47;;;1.00;99.90;;;;;;4993045;28;20132;-69
2020/12/06 04:56:38;;;;;;;6.38;3.80;;;1.00;99.90;;;;;;4991859;28;20141;-69
2020/12/06 04:59:04;;;;;;;5.72;3.67;;;1.00;99.90;;;;;;4995636;28;20378;-69
2020/12/06 05:01:38;;;;;;;5.32;3.38;;;1.00;99.90;;;;;;4993641;28;20393;-69
2020/12/06 05:04:13;;;;;;;5.63;3.05;;;1.00;99.90;;;;;;4987808;28;20554;-69
2020/12/06 05:06:40;;;;;;;8.80;3.75;;;1.00;99.90;;;;;;4997138;28;20110;-69
2020/12/06 05:09:09;;;;;;;5.70;3.15;;;1.00;99.90;;;;;;4993121;28;20050;-69
2020/12/06 05:11:37;;;;;;;6.00;3.67;;;0.90;99.90;;;;;;4992045;28;20109;-69
2020/12/06 05:14:07;;;;;;;5.75;3.22;;;0.90;99.90;;;;;;4992772;28;20054;-69
2020/12/06 05:16:38;;;;;;;5.53;3.28;;;0.90;99.90;;;;;;4984460;28;20675;-69
2020/12/06 05:19:05;;;;;;;6.68;3.65;;;0.90;99.90;;;;;;4988417;28;20426;-69
2020/12/06 05:21:35;;;;;;;5.57;2.92;;;0.90;99.90;;;;;;4992120;28;20042;-70
2020/12/06 05:24:02;;;;;;;6.78;3.70;;;0.80;99.90;;;;;;4989810;28;20046;-69
2020/12/06 05:26:29;;;;;;;6.43;3.45;;;0.80;99.90;;;;;;4990721;28;20061;-69
2020/12/06 05:28:56;;;;;;;6.20;3.35;;;0.80;99.90;;;;;;4979612;28;20073;-70
2020/12/06 05:31:23;;;;;;;9.10;3.83;;;0.80;99.90;;;;;;4991439;28;20502;-69
2020/12/06 05:33:50;;;;;;;6.10;3.50;;;0.80;99.90;;;;;;4986263;28;20502;-69
2020/12/06 05:36:17;;;;;;;6.00;3.67;;;0.80;99.90;;;;;;4988580;28;20050;-70
2020/12/06 05:38:44;;;;;;;5.80;3.70;;;0.80;99.90;;;;;;4991989;28;20061;-70
2020/12/06 05:41:11;;;;;;;8.25;4.00;;;0.90;99.90;;;;;;4997519;28;20181;-69
2020/12/06 05:43:37;;;;;;;6.28;3.55;;;0.90;99.90;;;;;;4996779;28;20148;-69
2020/12/06 05:46:14;;;;;;;5.47;3.45;;;0.90;99.90;;;;;;4994879;28;20056;-70
2020/12/06 05:48:42;;;;;;;7.20;3.70;;;0.90;99.90;;;;;;4997471;28;20484;-69
2020/12/06 05:51:11;;;;;;;8.90;4.28;;;0.90;99.90;;;;;;4999182;28;20401;-70
2020/12/06 05:53:38;;;;;;;5.55;3.60;;;0.90;99.90;;;;;;4997793;28;20056;-69
2020/12/06 05:56:13;;;;;;;10.38;4.05;;;0.90;99.90;;;;;;4997356;28;20046;-69
2020/12/06 05:58:41;;;;;;;7.72;4.05;;;1.00;99.90;;;;;;4996829;28;20052;-70
2020/12/06 06:01:10;;;;;;;6.05;3.70;;;1.00;99.90;;;;;;4998527;28;20089;-70
2020/12/06 06:03:37;;;;;;;5.70;3.10;;;1.00;99.90;;;;;;4998277;28;20046;-69
2020/12/06 06:06:07;;;;;;;6.32;3.60;;;1.00;99.90;;;;;;4997601;28;20046;-69
2020/12/06 06:08:38;;;;;;;5.18;3.33;;;1.00;99.90;;;;;;4991101;28;20637;-70
2020/12/06 06:11:20;;;;;;;6.03;3.30;;;1.00;99.90;;;;;;4998107;28;20493;-69
2020/12/06 06:13:53;;;;;;;6.05;3.55;;;1.00;99.90;;;;;;4997444;28;20050;-69
2020/12/06 06:16:22;;;;;;;5.97;3.45;;;1.00;99.90;;;;;;4996840;28;20058;-69
2020/12/06 06:18:50;;;;;;;6.07;3.50;;;1.00;99.90;;;;;;4997277;28;20046;-69
2020/12/06 06:21:19;;;;;;;6.20;3.45;;;1.00;99.90;;;;;;4992559;28;20795;-70
2020/12/06 06:23:47;;;;;;;6.72;3.53;;;1.00;99.90;;;;;;5003260;28;20418;-70
2020/12/06 06:26:16;;;;;;;6.57;4.05;;;1.00;99.90;;;;;;4998161;28;20435;-70
2020/12/06 06:28:44;;;;;;;6.13;3.53;;;1.00;99.90;;;;;;4998568;28;20050;-69
2020/12/06 06:31:15;;;;;;;10.55;4.35;;;1.00;99.90;;;;;;4979957;28;20054;-69
2020/12/06 06:33:43;;;;;;;8.32;4.50;;;1.00;99.90;;;;;;4998476;28;20046;-69
2020/12/06 06:36:10;;;;;;;9.48;4.88;;;1.00;99.90;;;;;;4997846;28;20050;-70
2020/12/06 06:38:44;;;;;;;8.30;4.93;;;1.00;99.90;;;;;;4998491;28;20057;-69
2020/12/06 06:41:12;;;;;;;7.93;4.45;;;1.00;99.90;;;;;;4995546;28;20068;-69
2020/12/06 06:43:39;;;;;;;8.13;4.70;;;1.00;99.90;;;;;;4997980;28;20532;-69
2020/12/06 06:46:09;;;;;;;10.13;5.75;;;1.00;99.90;;;;;;4997284;28;20050;-69
2020/12/06 06:48:36;;;;;;;9.32;4.80;;;1.00;99.90;;;;;;4994434;28;20042;-69
2020/12/06 06:51:03;;;;;;;8.52;5.18;;;1.00;99.90;;;;;;4998057;28;20050;-69
2020/12/06 06:53:30;;;;;;;7.25;5.03;;;1.10;99.90;;;;;;4994109;28;20068;-69
2020/12/06 06:55:59;;;;;;;13.45;5.60;;;1.10;99.90;;;;;;4992136;28;20058;-69
2020/12/06 06:58:30;;;;;;;9.48;5.80;;;1.10;99.90;;;;;;4988317;28;20054;-69
2020/12/06 07:01:22;;;;;;;9.57;5.03;;;1.20;99.90;;;;;;4986893;28;20054;-69
2020/12/06 07:03:49;;;;;;;8.20;4.60;;;1.20;99.90;;;;;;4993943;28;20053;-70
2020/12/06 07:06:47;;;;;;;10.48;5.38;;;1.20;99.90;;;;;;4981427;28;20050;-69
2020/12/06 07:09:15;;;;;;;8.43;4.65;;;1.30;99.90;;;;;;4982693;28;20050;-69
2020/12/06 07:11:42;;;;;;;9.10;5.43;;;1.30;99.90;;;;;;4989903;28;20433;-69
2020/12/06 07:14:08;;;;;;;8.15;4.88;;;1.30;99.90;;;;;;4991632;28;20053;-69
2020/12/06 07:16:35;;;;;;;9.10;4.57;;;1.40;99.90;;;;;;4988609;28;20414;-69
2020/12/06 07:19:02;;;;;;;8.32;4.90;;;1.40;99.90;;;;;;4986173;28;20450;-69
2020/12/06 07:21:34;;;;;;;7.85;4.45;;;1.40;99.90;;;;;;4987134;28;20046;-69
2020/12/06 07:24:02;;;;;;;7.22;4.25;;;1.40;99.90;;;;;;4974289;28;20081;-69
2020/12/06 07:26:29;;;;;;;6.40;4.00;;;1.40;99.90;;;;;;4987797;28;20090;-69
2020/12/06 07:28:56;;;;;;;8.13;4.63;;;1.50;99.90;;;;;;4971542;28;20074;-69
2020/12/06 07:31:24;;;;;;;7.70;4.18;;;1.50;99.90;;;;;;4983655;28;20049;-69
2020/12/06 07:33:51;;;;;;;7.22;3.90;;;1.50;99.90;;;;;;4992036;28;20078;-69
2020/12/06 07:36:17;;;;;;;6.72;3.92;;;1.50;99.90;;;;;;4988192;28;20469;-69
2020/12/06 07:38:44;;;;;;;7.88;4.35;;;1.60;99.90;;;;;;4983951;28;20078;-69
2020/12/06 07:41:11;;;;;;;8.32;4.03;;;1.60;99.90;;;;;;4988048;28;20042;-69
2020/12/06 07:43:38;;;;;;;8.93;4.50;;;1.60;99.90;;;;;;4985374;28;20042;-69
2020/12/06 07:46:13;;;;;;;7.10;3.85;;;1.60;99.90;;;;;;4979398;28;20062;-69
2020/12/06 07:48:39;;;;;;;7.63;4.70;;;1.60;99.90;;;;;;4992857;28;20133;-69
2020/12/06 07:51:06;;;;;;;7.82;4.75;;;1.60;99.90;;;;;;4993200;28;20121;-69
2020/12/06 07:53:49;;;;;;;10.13;4.60;;;1.60;99.90;;;;;;4985375;28;20389;-69
2020/12/06 07:56:19;;;;;;;7.13;4.00;;;1.60;99.90;;;;;;4981908;28;20486;-69
2020/12/06 07:58:54;;;;;;;7.30;4.28;;;1.60;99.90;;;;;;4984532;28;20073;-69
2020/12/06 08:01:21;;;;;;;8.85;4.45;;;1.60;99.90;;;;;;4992849;28;20073;-69
2020/12/06 08:03:51;;;;;;;6.57;4.25;;;1.70;99.90;;;;;;4987321;28;20042;-69
2020/12/06 08:06:19;;;;;;;7.25;4.13;;;1.70;99.90;;;;;;4978347;28;20247;-69
2020/12/06 08:08:49;;;;;;;9.10;4.97;;;1.70;99.90;;;;;;4983286;28;20120;-69
2020/12/06 08:11:17;;;;;;;8.48;5.35;;;1.70;99.90;;;;;;4988271;28;20078;-69
2020/12/06 08:13:49;;;;;;;9.27;5.53;;;1.80;99.90;;;;;;4981578;28;20054;-70
2020/12/06 08:16:17;;;;;;;9.65;5.72;;;1.80;99.90;;;;;;4989593;28;20050;-70
2020/12/06 08:18:44;;;;;;;9.98;5.47;;;1.80;99.90;;;;;;4986462;28;20341;-70
2020/12/06 08:21:11;;;;;;;9.07;5.68;;;1.80;99.90;;;;;;4978279;28;20052;-69
2020/12/06 08:23:39;;;;;;;10.73;5.90;;;1.90;99.90;;;;;;4981751;28;20053;-69
2020/12/06 08:26:07;;;;;;;9.35;5.82;;;1.90;99.90;;;;;;4984302;28;20043;-70
2020/12/06 08:28:33;;;;;;;7.22;5.47;;;1.90;99.90;;;;;;4984578;28;20053;-70
2020/12/06 08:31:00;;;;;;;9.57;5.78;;;1.90;99.90;;;;;;4984413;28;20191;-70
2020/12/06 08:33:28;;;;;;;9.35;5.47;;;1.90;99.90;;;;;;4985160;28;20053;-70
2020/12/06 08:35:56;;;;;;;9.25;5.45;;;2.00;99.90;;;;;;4986912;28;20057;-70
2020/12/06 08:38:27;;;;;;;7.53;4.77;;;2.00;99.90;;;;;;4989837;28;20046;-68
2020/12/06 08:41:10;;;;;;;10.10;6.28;;;2.00;99.90;;;;;;4983709;28;20665;-69
2020/12/06 08:43:46;;;;;;;8.07;5.82;;;2.00;99.90;;;;;;4987068;28;20042;-70
2020/12/06 08:46:15;;;;;;;9.57;5.90;;;2.10;99.90;;;;;;4983084;28;20138;-70
2020/12/06 08:48:42;;;;;;;9.80;5.50;;;2.10;99.90;;;;;;4990210;28;20474;-70
2020/12/06 08:51:36;;;;;;;9.98;6.10;;;2.10;99.90;;;;;;4989444;28;20042;-70
2020/12/06 08:54:07;;;;;;;10.55;6.35;;;2.10;99.90;;;;;;4987365;28;20043;-70
2020/12/06 08:56:38;;;;;;;9.93;6.28;;;2.20;99.90;;;;;;4990266;28;20508;-70
2020/12/06 08:59:10;;;;;;;10.30;6.20;;;2.20;99.90;;;;;;4982613;28;20082;-70
2020/12/06 09:01:54;;;;;;;9.23;5.95;;;2.20;99.90;;;;;;5001821;28;20050;-70
2020/12/06 09:04:21;;;;;;;12.23;7.45;;;2.20;99.90;;;;;;4987993;28;20060;-70
2020/12/06 09:06:50;;;;;;;12.75;7.60;;;2.20;99.90;;;;;;4989825;28;20130;-70
2020/12/06 09:09:16;;;;;;;12.80;7.00;;;2.20;99.90;;;;;;5000144;28;20052;-70
2020/12/06 09:11:42;;;;;;;11.23;7.30;;;2.20;99.90;;;;;;4995771;28;20042;-70
2020/12/06 09:14:09;;;;;;;11.77;7.25;;;2.30;99.90;;;;;;4999639;28;20050;-70
2020/12/06 09:16:39;;;;;;;12.20;7.47;;;2.30;99.90;;;;;;4996732;28;20161;-70
2020/12/06 09:19:05;;;;;;;13.02;8.88;;;2.30;99.90;;;;;;4995459;28;20042;-70
2020/12/06 09:21:32;;;;;;;12.32;8.05;;;2.30;99.90;;;;;;4999986;28;20046;-70
2020/12/06 09:23:58;;;;;;;17.70;9.75;;;2.40;99.90;;;;;;4997772;28;20068;-70
2020/12/06 09:26:25;;;;;;;14.60;8.70;;;2.40;99.90;;;;;;4990613;28;20082;-70
2020/12/06 09:28:52;;;;;;;14.68;8.85;;;2.40;99.90;;;;;;4998799;28;20046;-70
2020/12/06 09:31:22;;;;;;;16.20;8.93;;;2.40;99.90;;;;;;4987212;28;20399;-69
2020/12/06 09:33:49;;;;;;;13.60;8.60;;;2.50;99.90;;;;;;4995746;28;20086;-70
2020/12/06 09:36:15;;;;;;;13.48;7.80;;;2.50;99.90;;;;;;4989848;28;20064;-70
2020/12/06 09:38:42;;;;;;;13.45;7.78;;;2.60;99.90;;;;;;5002318;28;20058;-70
2020/12/06 09:41:12;;;;;;;13.20;7.80;;;2.60;99.90;;;;;;4999666;28;20137;-70
2020/12/06 09:43:39;;;;;;;15.05;7.93;;;2.70;99.90;;;;;;4991147;28;20046;-70
2020/12/06 09:46:07;;;;;;;13.88;7.95;;;2.70;99.90;;;;;;4991178;28;20047;-69
2020/12/06 09:48:34;;;;;;;13.15;7.85;;;2.70;99.90;;;;;;4993082;28;20100;-69
2020/12/06 09:51:01;;;;;;;11.38;7.20;;;2.80;99.90;;;;;;4988420;28;20157;-69
2020/12/06 09:53:27;;;;;;;12.52;7.53;;;2.80;99.90;;;;;;4997370;28;20137;-69
2020/12/06 09:55:54;;;;;;;15.05;8.30;;;2.90;99.90;;;;;;4973522;28;20054;-69
2020/12/06 09:58:20;;;;;;;15.38;8.63;;;2.90;99.90;;;;;;4995835;28;20178;-69
2020/12/06 10:00:47;;;;;;;16.00;8.95;;;2.90;99.90;;;;;;4994762;28;20136;-69
2020/12/06 10:03:13;;;;;;;13.95;8.30;;;3.00;99.90;;;;;;4985504;28;20065;-69
2020/12/06 10:05:40;;;;;;;13.80;8.32;;;3.00;99.90;;;;;;4989542;28;20052;-69
2020/12/06 10:08:06;;;;;;;14.88;8.50;;;3.00;99.90;;;;;;4992024;28;20062;-69
2020/12/06 10:10:32;;;;;;;13.95;8.40;;;3.00;99.90;;;;;;4991188;28;20046;-69
2020/12/06 10:12:59;;;;;;;14.63;8.55;;;3.10;99.90;;;;;;4990801;28;20305;-69
2020/12/06 10:15:25;;;;;;;15.15;8.95;;;3.10;99.90;;;;;;4990478;28;20452;-69
2020/12/06 10:17:51;;;;;;;13.63;8.05;;;3.10;99.90;;;;;;4991536;28;20129;-69
2020/12/06 10:20:19;;;;;;;15.40;8.80;;;3.10;99.90;;;;;;4990785;28;20046;-69
2020/12/06 10:22:48;;;;;;;16.83;8.88;;;3.20;99.90;;;;;;4991380;28;20146;-69
2020/12/06 10:25:14;;;;;;;;;;;3.20;99.90;;;;;;4991748;28;20046;-69
2020/12/06 10:27:41;;;;;;;15.38;8.43;;;3.20;99.90;;;;;;4993247;28;20403;-69
2020/12/06 10:30:07;;;;;;;16.00;9.02;;;3.20;99.90;;;;;;4994326;28;20050;-69
2020/12/06 10:32:33;;;;;;;15.90;8.90;;;3.30;99.90;;;;;;4994088;28;20062;-69
2020/12/06 10:35:00;;;;;;;14.85;8.93;;;3.30;99.90;;;;;;4992834;28;20105;-69
2020/12/06 10:37:26;;;;;;;16.10;9.05;;;3.40;99.90;;;;;;4987287;28;20094;-69
2020/12/06 10:39:53;;;;;;;14.52;8.90;;;3.50;99.90;;;;;;4986425;28;20058;-69
2020/12/06 10:42:19;;;;;;;14.68;9.23;;;3.50;99.90;;;;;;4989557;28;20133;-69
2020/12/06 10:44:46;;;;;;;14.65;8.93;;;3.60;99.90;;;;;;4990302;28;20121;-70
2020/12/06 10:47:12;;;;;;;14.75;8.80;;;3.60;99.90;;;;;;4991200;28;20481;-69
2020/12/06 10:49:43;;;;;;;16.85;9.38;;;3.70;99.90;;;;;;4990790;28;20050;-69
2020/12/06 10:52:12;;;;;;;14.70;9.52;;;3.70;99.90;;;;;;4972997;28;20072;-69
2020/12/06 10:54:39;;;;;;;16.27;9.05;;;3.80;99.90;;;;;;4992600;28;20430;-69
2020/12/06 10:57:05;;;;;;;18.02;9.82;;;3.80;99.90;;;;;;4992492;28;20080;-69
2020/12/06 10:59:32;;;;;;;15.75;9.60;;;3.90;99.90;;;;;;4993262;28;20442;-69
2020/12/06 11:01:59;;;;;;;17.25;9.88;;;3.90;99.90;;;;;;4997993;28;20085;-69
2020/12/06 11:04:26;;;;;;;15.23;9.27;;;3.90;99.90;;;;;;5006984;28;20128;-69
2020/12/06 11:06:52;;;;;;;15.48;9.07;;;4.00;99.90;;;;;;5011421;28;20042;-69
2020/12/06 11:09:18;;;;;;;15.98;9.60;;;4.00;99.90;;;;;;4998994;28;20392;-69
2020/12/06 11:11:49;;;;;;;14.57;9.30;;;4.00;99.90;;;;;;5007646;28;20441;-69
2020/12/06 11:14:15;;;;;;;14.48;8.88;;;4.00;99.90;;;;;;5008052;28;20137;-69
2020/12/06 11:16:41;;;;;;;15.02;8.68;;;4.00;99.90;;;;;;5007665;28;20042;-69
2020/12/06 11:19:08;;;;;;;15.07;9.55;;;4.00;99.90;;;;;;5006905;28;20461;-69
2020/12/06 11:21:36;;;;;;;15.40;9.10;;;4.00;99.90;;;;;;4990400;28;20048;-69
2020/12/06 11:24:02;;;;;;;16.50;9.68;;;4.10;99.90;;;;;;5008381;28;20046;-69
2020/12/06 11:26:29;;;;;;;15.27;8.77;;;4.00;99.90;;;;;;5012341;28;20515;-69
2020/12/06 11:28:56;;;;;;;16.67;9.20;;;4.10;99.90;;;;;;5008314;28;20429;-69
2020/12/06 11:31:22;;;;;;;15.07;9.43;;;4.10;99.90;;;;;;5009221;28;20511;-69
2020/12/06 11:33:48;;;;;;;15.20;9.68;;;4.10;99.90;;;;;;5006325;28;20057;-69
2020/12/06 11:36:14;;;;;;;16.13;9.65;;;4.10;99.90;;;;;;5007268;28;20081;-69
2020/12/06 11:38:42;;;;;;;14.90;9.23;;;4.20;99.90;;;;;;5011469;28;20050;-69
2020/12/06 11:41:09;;;;;;;15.32;9.00;;;4.20;99.90;;;;;;5008672;28;20055;-69
2020/12/06 11:43:36;;;;;;;15.13;9.15;;;4.20;99.90;;;;;;5008138;28;20042;-69
2020/12/06 11:46:03;;;;;;;15.10;9.20;;;4.30;99.90;;;;;;5007499;28;20041;-69
2020/12/06 11:48:30;;;;;;;15.43;9.48;;;4.30;99.90;;;;;;5004826;28;20288;-69
2020/12/06 11:50:56;;;;;;;14.70;8.80;;;4.30;99.90;;;;;;5010176;28;20046;-69
2020/12/06 11:53:22;;;;;;;14.80;9.10;;;4.30;99.90;;;;;;5005208;28;20331;-69
2020/12/06 11:55:49;;;;;;;14.65;8.75;;;4.30;99.90;;;;;;4994807;28;20088;-69
2020/12/06 11:58:16;;;;;;;14.93;9.38;;;4.30;99.90;;;;;;5013061;28;20140;-69
2020/12/06 12:00:42;;;;;;;16.40;9.13;;;4.30;99.90;;;;;;5005648;28;20041;-69
2020/12/06 12:03:09;;;;;;;15.68;9.73;;;4.40;99.90;;;;;;4969853;28;20046;-69
2020/12/06 12:05:35;;;;;;;16.42;9.25;;;4.40;99.90;;;;;;4992710;28;20543;-69
2020/12/06 12:08:02;;;;;;;14.95;8.98;;;4.40;99.90;;;;;;4982067;28;20046;-69
2020/12/06 12:10:28;;;;;;;14.98;9.20;;;4.40;99.90;;;;;;4991995;28;20129;-69
2020/12/06 12:12:59;;;;;;;14.55;9.00;;;4.40;99.90;;;;;;4981653;28;20124;-69
2020/12/06 12:15:25;;;;;;;14.27;9.00;;;4.50;99.90;;;;;;4993142;28;20050;-69
2020/12/06 12:17:52;;;;;;;17.42;9.75;;;4.50;99.90;;;;;;4989758;28;20129;-69
2020/12/06 12:20:19;;;;;;;13.73;8.75;;;4.50;99.90;;;;;;4992383;28;20504;-69
2020/12/06 12:22:45;;;;;;;13.75;8.95;;;4.60;99.90;;;;;;4992989;28;20046;-70
2020/12/06 12:25:12;;;;;;;15.27;9.27;;;4.60;99.90;;;;;;4988392;28;20047;-69
2020/12/06 12:27:39;;;;;;;15.70;9.40;;;4.60;99.90;;;;;;4966429;28;20871;-69
2020/12/06 12:30:06;;;;;;;15.68;9.50;;;4.70;99.90;;;;;;4990427;28;20466;-69
2020/12/06 12:32:32;;;;;;;14.82;9.75;;;4.70;99.90;;;;;;4993032;28;20046;-69
2020/12/06 12:34:58;;;;;;;14.23;9.18;;;4.70;99.90;;;;;;4992641;28;20069;-70
2020/12/06 12:37:25;;;;;;;14.48;8.77;;;4.70;99.90;;;;;;4992604;28;20050;-69
2020/12/06 12:39:54;;;;;;;16.30;9.32;;;4.70;99.90;;;;;;4992314;28;20053;-69
2020/12/06 12:42:20;;;;;;;14.88;9.18;;;4.70;99.90;;;;;;4992537;28;20050;-69
2020/12/06 12:44:46;;;;;;;13.77;9.23;;;4.70;99.90;;;;;;4992393;28;20370;-69
2020/12/06 12:47:13;;;;;;;15.80;9.70;;;4.70;99.90;;;;;;4990865;28;20052;-70
2020/12/06 12:49:40;;;;;;;15.63;9.75;;;4.70;99.90;;;;;;4973733;28;20511;-69
2020/12/06 12:52:08;;;;;;;14.45;9.10;;;4.70;99.90;;;;;;4983003;28;20125;-70
2020/12/06 12:54:34;;;;;;;14.35;8.90;;;4.70;99.90;;;;;;4990459;28;20438;-69
2020/12/06 12:57:04;;;;;;;14.10;9.07;;;4.70;99.90;;;;;;4993162;28;20501;-69
2020/12/06 12:59:31;;;;;;;13.65;8.88;;;4.70;99.90;;;;;;4990863;28;20050;-70